Time;durP1;ratioP1;P1;durP2;ratioP2;P2;SDS_P1;SDS_P2;PMS_P1;PMS_P2;Temp;Humidity;BMP_temperature;BMP_pressure;BME280_temperature;BME280_humidity;BME280_pressure;Samples;Min_cycle;Max_cycle;Signal;HPM_P1;HPM_P2
2021/07/23 00:01:03;;;;;;;17.40;13.15;;;16.70;99.90;;;;;;6268525;28;20036;-80
2021/07/23 00:04:04;;;;;;;18.00;14.73;;;16.70;99.90;;;;;;6268026;28;20508;-80
2021/07/23 00:07:04;;;;;;;18.90;14.20;;;16.80;99.90;;;;;;6268301;28;20032;-79
2021/07/23 00:10:05;;;;;;;21.58;13.40;;;16.70;99.90;;;;;;6269770;28;20033;-80
2021/07/23 00:13:06;;;;;;;17.27;12.90;;;16.70;99.90;;;;;;6267675;28;20777;-81
2021/07/23 00:16:06;;;;;;;21.58;14.35;;;16.70;99.90;;;;;;6267928;28;20438;-80
2021/07/23 00:19:07;;;;;;;18.70;14.27;;;16.70;99.90;;;;;;6251482;28;20045;-80
2021/07/23 00:22:07;;;;;;;17.98;14.52;;;16.70;99.90;;;;;;6269275;28;20033;-80
2021/07/23 00:25:08;;;;;;;18.35;14.30;;;16.70;99.90;;;;;;6267646;28;20033;-80
2021/07/23 00:28:09;;;;;;;18.35;14.18;;;16.70;99.90;;;;;;6269292;28;20090;-81
2021/07/23 00:31:09;;;;;;;16.17;13.32;;;16.70;99.90;;;;;;6267562;28;20037;-80
2021/07/23 00:34:10;;;;;;;21.98;13.88;;;16.70;99.90;;;;;;6267902;28;20017;-80
2021/07/23 00:37:11;;;;;;;17.73;13.57;;;16.60;99.90;;;;;;6267992;28;20040;-80
2021/07/23 00:40:12;;;;;;;17.75;13.60;;;16.70;99.90;;;;;;6269116;28;20033;-80
2021/07/23 00:43:12;;;;;;;17.38;12.75;;;16.70;99.90;;;;;;6267173;28;20685;-81
2021/07/23 00:46:13;;;;;;;14.90;12.52;;;16.80;99.90;;;;;;6267734;28;20051;-81
2021/07/23 00:49:13;;;;;;;17.98;12.50;;;16.70;99.90;;;;;;6250937;28;20354;-80
2021/07/23 00:52:14;;;;;;;16.65;13.38;;;16.70;99.90;;;;;;6267580;28;20033;-81
2021/07/23 00:55:14;;;;;;;18.98;12.80;;;16.70;99.90;;;;;;6267639;28;20437;-80
2021/07/23 00:58:15;;;;;;;15.80;13.43;;;16.60;99.90;;;;;;6266636;28;20060;-80
2021/07/23 01:01:16;;;;;;;21.52;14.40;;;16.50;99.90;;;;;;6267061;28;20061;-80
2021/07/23 01:04:16;;;;;;;17.45;13.27;;;16.60;99.90;;;;;;6267086;28;20033;-80
2021/07/23 01:07:17;;;;;;;19.77;13.98;;;16.50;99.90;;;;;;6266726;28;20068;-81
2021/07/23 01:10:17;;;;;;;16.67;13.68;;;16.50;99.90;;;;;;6266875;28;20045;-80
2021/07/23 01:13:18;;;;;;;17.23;13.38;;;16.60;99.90;;;;;;6266720;28;20126;-79
2021/07/23 01:16:18;;;;;;;15.82;13.13;;;16.50;99.90;;;;;;6266971;28;20036;-80
2021/07/23 01:19:19;;;;;;;17.95;13.13;;;;;;;;;;6266947;28;20025;-80
2021/07/23 01:22:21;;;;;;;16.67;13.13;;;16.60;99.90;;;;;;6266532;28;20120;-80
2021/07/23 01:25:22;;;;;;;17.48;13.50;;;16.70;99.90;;;;;;6266428;28;20029;-81
2021/07/23 01:28:22;;;;;;;19.30;14.13;;;16.40;99.90;;;;;;6266817;28;20025;-80
2021/07/23 01:31:23;;;;;;;23.67;13.90;;;16.40;99.90;;;;;;6267963;28;20047;-80
2021/07/23 01:34:24;;;;;;;16.55;13.82;;;16.40;99.90;;;;;;6267058;28;20025;-80
2021/07/23 01:37:24;;;;;;;18.10;13.98;;;16.40;99.90;;;;;;6266462;28;20108;-80
2021/07/23 01:40:25;;;;;;;18.05;12.77;;;16.30;99.90;;;;;;6250099;28;20033;-80
2021/07/23 01:43:25;;;;;;;16.75;13.00;;;16.40;99.90;;;;;;6266280;28;20025;-81
2021/07/23 01:46:26;;;;;;;27.55;14.63;;;16.30;99.90;;;;;;6266331;28;20466;-80
2021/07/23 01:49:27;;;;;;;16.42;13.98;;;16.30;99.90;;;;;;6265707;28;20080;-80
2021/07/23 01:52:29;;;;;;;22.02;14.50;;;16.20;99.90;;;;;;6265995;28;20045;-80
2021/07/23 01:55:30;;;;;;;17.13;13.63;;;16.20;99.90;;;;;;6267960;28;20031;-81
2021/07/23 01:58:31;;;;;;;16.52;13.15;;;16.20;99.90;;;;;;6266584;28;20458;-79
2021/07/23 02:01:32;;;;;;;17.50;14.90;;;16.20;99.90;;;;;;6267997;28;20036;-80
2021/07/23 02:04:33;;;;;;;18.98;14.35;;;16.10;99.90;;;;;;6266093;28;20029;-80
2021/07/23 02:07:34;;;;;;;16.95;13.55;;;16.10;99.90;;;;;;6266665;28;20021;-80
2021/07/23 02:10:35;;;;;;;19.02;14.32;;;16.40;99.90;;;;;;6269449;28;20048;-81
2021/07/23 02:13:35;;;;;;;15.13;13.10;;;16.00;99.90;;;;;;6271017;28;20057;-80
2021/07/23 02:16:36;;;;;;;19.30;13.82;;;16.00;99.90;;;;;;6272344;28;20044;-80
2021/07/23 02:19:36;;;;;;;19.15;13.38;;;16.00;99.90;;;;;;6270618;28;20021;-80
2021/07/23 02:22:37;;;;;;;16.38;13.35;;;15.90;99.90;;;;;;6270840;28;20104;-80
2021/07/23 02:25:38;;;;;;;15.80;13.27;;;16.00;99.90;;;;;;6272126;28;20757;-80
2021/07/23 02:28:38;;;;;;;19.05;13.35;;;16.00;99.90;;;;;;6272150;28;20025;-80
2021/07/23 02:31:39;;;;;;;22.42;13.93;;;16.00;99.90;;;;;;6253627;28;20041;-80
2021/07/23 02:34:39;;;;;;;16.70;13.43;;;16.10;99.90;;;;;;6270294;28;20021;-81
2021/07/23 02:37:40;;;;;;;15.70;12.85;;;16.00;99.90;;;;;;6270175;28;20405;-80
2021/07/23 02:40:40;;;;;;;18.63;13.40;;;15.90;99.90;;;;;;6270388;28;20071;-81
2021/07/23 02:43:43;;;;;;;17.80;13.15;;;15.90;99.90;;;;;;6270652;28;20195;-80
2021/07/23 02:46:43;;;;;;;;;;;15.90;99.90;;;;;;6272068;28;20119;-80
2021/07/23 02:49:44;;;;;;;16.20;13.80;;;16.00;99.90;;;;;;6271808;28;19900;-80
2021/07/23 02:52:44;;;;;;;17.17;13.45;;;15.70;99.90;;;;;;6270893;28;20040;-81
2021/07/23 02:55:45;;;;;;;15.35;12.60;;;15.90;99.90;;;;;;6270257;28;20028;-80
2021/07/23 02:58:47;;;;;;;21.23;14.45;;;15.70;99.90;;;;;;6269621;28;20052;-80
2021/07/23 03:01:47;;;;;;;23.53;14.43;;;15.60;99.90;;;;;;6271373;28;20463;-80
2021/07/23 03:04:48;;;;;;;17.38;13.88;;;15.50;99.90;;;;;;6285911;28;20020;-80
2021/07/23 03:07:52;;;;;;;18.15;13.60;;;15.60;99.90;;;;;;6270280;28;20036;-80
2021/07/23 03:10:53;;;;;;;17.75;14.15;;;15.60;99.90;;;;;;6269383;28;20171;-80
2021/07/23 03:13:55;;;;;;;17.67;13.48;;;15.50;99.90;;;;;;6269546;28;20049;-80
2021/07/23 03:16:56;;;;;;;;;;;15.50;99.90;;;;;;6253419;28;20027;-79
2021/07/23 03:19:56;;;;;;;17.50;13.30;;;15.40;99.90;;;;;;6270423;28;20636;-80
2021/07/23 03:22:57;;;;;;;23.30;14.02;;;15.40;99.90;;;;;;6269833;28;20029;-79
2021/07/23 03:25:57;;;;;;;20.67;14.95;;;15.40;99.90;;;;;;6252460;28;20029;-79
2021/07/23 03:28:59;;;;;;;20.88;14.05;;;;;;;;;;6270971;28;20420;-79
2021/07/23 03:31:59;;;;;;;20.10;14.32;;;15.30;99.90;;;;;;6269327;28;20071;-80
2021/07/23 03:35:00;;;;;;;17.55;14.52;;;15.10;99.90;;;;;;6269466;28;20033;-80
2021/07/23 03:38:01;;;;;;;19.17;14.05;;;15.50;99.90;;;;;;6252524;28;20035;-80
2021/07/23 03:41:01;;;;;;;19.65;13.35;;;15.10;99.90;;;;;;6252432;28;20044;-79
2021/07/23 03:44:02;;;;;;;19.92;13.15;;;15.10;99.90;;;;;;6268770;28;20063;-79
2021/07/23 03:47:03;;;;;;;18.50;14.88;;;15.10;99.90;;;;;;6252192;28;20021;-81
2021/07/23 03:50:04;;;;;;;17.67;14.15;;;15.00;99.90;;;;;;6269831;28;20031;-81
2021/07/23 03:53:04;;;;;;;18.00;13.90;;;15.00;99.90;;;;;;6268585;28;20017;-81
2021/07/23 03:56:06;;;;;;;16.67;14.20;;;15.00;99.90;;;;;;6268706;28;20040;-81
2021/07/23 03:59:06;;;;;;;19.35;13.50;;;15.00;99.90;;;;;;6268427;28;20059;-80
2021/07/23 04:02:07;;;;;;;16.00;13.70;;;14.90;99.90;;;;;;6251764;28;20029;-80
2021/07/23 04:05:07;;;;;;;20.38;15.20;;;15.00;99.90;;;;;;6270094;28;20036;-80
2021/07/23 04:08:08;;;;;;;19.77;14.63;;;14.70;99.90;;;;;;6269848;28;20119;-79
2021/07/23 04:11:17;;;;;;;20.90;14.52;;;15.00;99.90;;;;;;6268282;28;20383;-79
2021/07/23 04:14:17;;;;;;;19.98;14.27;;;15.20;99.90;;;;;;6252657;28;20053;-81
2021/07/23 04:17:18;;;;;;;16.55;13.38;;;15.10;99.90;;;;;;6267959;28;20589;-79
2021/07/23 04:20:19;;;;;;;19.55;13.48;;;15.10;99.90;;;;;;6267207;28;20061;-80
2021/07/23 04:23:19;;;;;;;17.40;13.65;;;15.40;99.90;;;;;;6268599;28;20029;-80
2021/07/23 04:26:20;;;;;;;19.58;14.27;;;15.30;99.90;;;;;;6268251;28;20519;-79
2021/07/23 04:29:20;;;;;;;19.63;14.38;;;15.50;99.90;;;;;;6267566;28;20815;-80
2021/07/23 04:32:21;;;;;;;16.50;13.05;;;15.90;99.90;;;;;;6265129;28;20445;-81
2021/07/23 04:35:21;;;;;;;17.17;13.02;;;16.00;99.90;;;;;;6266853;28;20041;-80
2021/07/23 04:38:22;;;;;;;18.60;13.68;;;16.10;99.90;;;;;;6257346;28;20029;-82
2021/07/23 04:41:22;;;;;;;20.20;13.48;;;16.40;99.90;;;;;;6267181;28;20120;-82
2021/07/23 04:44:23;;;;;;;15.40;12.68;;;16.50;99.90;;;;;;6267571;28;20074;-84
2021/07/23 04:47:23;;;;;;;17.67;13.80;;;16.70;99.90;;;;;;6266712;28;20465;-81
2021/07/23 04:50:24;;;;;;;21.33;14.40;;;16.90;99.90;;;;;;6266548;28;20052;-80
2021/07/23 04:53:25;;;;;;;18.85;12.90;;;;;;;;;;6268054;28;20041;-82
2021/07/23 04:56:26;;;;;;;15.95;13.38;;;17.20;99.90;;;;;;6266899;28;20633;-82
2021/07/23 04:59:26;;;;;;;17.08;13.38;;;17.50;99.90;;;;;;6266318;28;20055;-84
2021/07/23 05:02:27;;;;;;;17.38;12.85;;;17.60;99.90;;;;;;6266473;28;20356;-85
2021/07/23 05:05:27;;;;;;;20.77;14.43;;;17.60;99.90;;;;;;6266658;28;20028;-83
2021/07/23 05:08:28;;;;;;;19.05;12.75;;;17.70;99.90;;;;;;6266230;28;20037;-83
2021/07/23 05:11:29;;;;;;;17.77;13.70;;;17.90;99.90;;;;;;6266063;28;20489;-82
2021/07/23 05:14:31;;;;;;;17.30;14.30;;;18.20;99.90;;;;;;6266426;28;20037;-82
2021/07/23 05:17:31;;;;;;;25.35;14.27;;;18.50;99.90;;;;;;6266452;28;20033;-82
2021/07/23 05:20:32;;;;;;;23.40;13.93;;;18.90;99.90;;;;;;6282988;28;20033;-84
2021/07/23 05:23:33;;;;;;;17.58;13.32;;;19.20;99.90;;;;;;6266657;28;20035;-84
2021/07/23 05:26:35;;;;;;;16.05;13.40;;;19.50;99.90;;;;;;6266666;28;20025;-84
2021/07/23 05:29:36;;;;;;;16.75;12.82;;;20.00;99.90;;;;;;6266499;28;20067;-84
2021/07/23 05:32:36;;;;;;;17.63;12.70;;;19.80;99.90;;;;;;6266280;28;20087;-85
2021/07/23 05:35:37;;;;;;;17.85;12.82;;;19.70;99.90;;;;;;6266468;28;20025;-84
2021/07/23 05:38:37;;;;;;;17.30;13.07;;;20.10;99.90;;;;;;6266613;28;20033;-81
2021/07/23 05:44:01;;;;;;;21.40;12.90;;;20.50;99.90;;;;;;6288857;28;20461;-83
2021/07/23 05:47:02;;;;;;;14.93;12.95;;;20.90;99.90;;;;;;6270987;28;20033;-84
2021/07/23 05:50:03;;;;;;;16.25;13.90;;;21.20;99.90;;;;;;6271263;28;20090;-83
2021/07/23 05:53:04;;;;;;;18.10;12.43;;;21.30;99.90;;;;;;6254265;28;20370;-83
2021/07/23 05:56:05;;;;;;;14.32;12.82;;;21.50;99.50;;;;;;6287690;28;20020;-83
2021/07/23 05:59:05;;;;;;;16.00;12.88;;;21.70;99.00;;;;;;6255024;28;20013;-83
2021/07/23 06:02:06;;;;;;;16.80;12.95;;;22.00;98.40;;;;;;6287412;28;20124;-84
2021/07/23 06:05:07;;;;;;;19.50;14.32;;;22.20;98.40;;;;;;6254462;28;20371;-83
2021/07/23 06:08:07;;;;;;;15.07;12.82;;;22.40;98.50;;;;;;6253438;28;20028;-84
2021/07/23 06:11:08;;;;;;;17.92;13.30;;;22.80;98.10;;;;;;6270760;28;20478;-85
2021/07/23 06:14:09;;;;;;;17.38;13.27;;;23.20;96.70;;;;;;6254481;28;20049;-84
2021/07/23 06:17:09;;;;;;;15.52;13.65;;;23.50;96.60;;;;;;6270684;28;20451;-84
2021/07/23 06:20:10;;;;;;;14.70;13.05;;;23.80;96.10;;;;;;6247842;28;20466;-83
2021/07/23 06:23:11;;;;;;;16.35;12.40;;;24.00;95.30;;;;;;6249668;28;20123;-82
2021/07/23 06:26:12;;;;;;;17.13;13.00;;;24.20;94.40;;;;;;6245684;28;20112;-82
2021/07/23 06:29:13;;;;;;;14.68;12.25;;;24.40;93.50;;;;;;6262774;28;20036;-81
2021/07/23 06:32:14;;;;;;;15.32;11.48;;;24.60;92.60;;;;;;6262583;28;20053;-82
2021/07/23 06:35:14;;;;;;;13.82;11.88;;;24.90;92.50;;;;;;6263195;28;20382;-82
2021/07/23 06:38:15;;;;;;;14.27;11.48;;;25.00;91.90;;;;;;6238274;28;20022;-81
2021/07/23 06:41:15;;;;;;;14.10;11.13;;;25.30;91.30;;;;;;6255648;28;20025;-82
2021/07/23 06:44:16;;;;;;;14.43;11.87;;;25.80;90.40;;;;;;6249523;28;20463;-82
2021/07/23 06:47:17;;;;;;;15.00;11.27;;;26.20;90.00;;;;;;6267834;28;20117;-81
2021/07/23 06:50:18;;;;;;;16.55;12.85;;;26.50;89.20;;;;;;6268144;28;20025;-82
2021/07/23 06:53:19;;;;;;;12.70;11.40;;;27.00;88.30;;;;;;6262875;28;20033;-83
2021/07/23 06:56:19;;;;;;;14.70;12.57;;;27.50;88.20;;;;;;6251714;28;20440;-82
2021/07/23 06:59:20;;;;;;;15.20;12.73;;;27.70;85.10;;;;;;6252888;28;20029;-82
2021/07/23 07:02:21;;;;;;;13.43;11.70;;;28.00;83.40;;;;;;6253371;28;20418;-83
2021/07/23 07:05:24;;;;;;;13.67;11.77;;;28.40;82.50;;;;;;6236846;28;20032;-84
2021/07/23 07:08:25;;;;;;;14.30;11.80;;;28.70;79.90;;;;;;6268266;28;20028;-83
2021/07/23 07:11:25;;;;;;;16.70;12.37;;;29.00;78.70;;;;;;6236577;28;20398;-82
2021/07/23 07:14:26;;;;;;;14.43;11.63;;;29.20;75.20;;;;;;6253121;28;20048;-82
2021/07/23 07:17:29;;;;;;;12.85;11.48;;;29.40;74.80;;;;;;6252919;28;20083;-81
2021/07/23 07:20:32;;;;;;;15.98;12.18;;;29.30;74.20;;;;;;6236519;28;20028;-81
2021/07/23 07:23:32;;;;;;;15.95;11.77;;;29.50;72.90;;;;;;6236241;28;20028;-81
2021/07/23 07:26:33;;;;;;;14.23;11.83;;;29.90;73.20;;;;;;6235845;28;20074;-82
2021/07/23 07:29:36;;;;;;;15.23;12.37;;;30.10;70.60;;;;;;6252323;28;20036;-84
2021/07/23 07:32:36;;;;;;;14.20;11.23;;;30.30;70.30;;;;;;6236509;28;20029;-82
2021/07/23 07:35:37;;;;;;;13.17;11.73;;;30.80;68.40;;;;;;6252269;28;20025;-82
2021/07/23 07:38:38;;;;;;;17.58;12.73;;;30.80;65.60;;;;;;6236088;28;20024;-82
2021/07/23 07:41:39;;;;;;;12.13;10.90;;;30.80;69.20;;;;;;6252035;28;20053;-82
2021/07/23 07:44:39;;;;;;;15.00;12.07;;;30.80;67.90;;;;;;6235397;28;20028;-82
2021/07/23 07:47:40;;;;;;;17.73;12.73;;;30.90;69.50;;;;;;6235331;28;20033;-82
2021/07/23 07:50:40;;;;;;;13.87;12.47;;;31.20;68.70;;;;;;6251716;28;20115;-82
2021/07/23 07:53:42;;;;;;;16.77;12.50;;;31.30;67.50;;;;;;6250630;28;20115;-82
2021/07/23 07:56:44;;;;;;;17.20;12.45;;;31.30;67.80;;;;;;6250378;28;20013;-82
2021/07/23 07:59:44;;;;;;;;;;;31.40;69.50;;;;;;6252150;28;20029;-81
2021/07/23 08:02:46;;;;;;;15.97;12.00;;;31.50;68.30;;;;;;6234254;28;20401;-82
2021/07/23 08:05:47;;;;;;;16.83;11.25;;;31.60;66.90;;;;;;6233325;28;20143;-81
2021/07/23 08:08:48;;;;;;;15.33;11.90;;;31.70;66.70;;;;;;6251037;28;20025;-82
2021/07/23 08:11:48;;;;;;;12.85;10.75;;;31.80;66.80;;;;;;6251803;28;20039;-82
2021/07/23 08:14:49;;;;;;;14.53;11.40;;;31.70;64.00;;;;;;6269681;28;20371;-82
2021/07/23 08:17:50;;;;;;;16.90;11.90;;;31.80;64.60;;;;;;6251338;28;20026;-82
2021/07/23 08:20:51;;;;;;;12.25;10.77;;;32.10;64.80;;;;;;6234888;28;20025;-82
2021/07/23 08:23:52;;;;;;;15.50;11.60;;;32.00;63.60;;;;;;6251501;28;20048;-82
2021/07/23 08:26:53;;;;;;;13.23;11.40;;;31.80;64.70;;;;;;6252021;28;20407;-82
2021/07/23 08:29:55;;;;;;;12.30;10.95;;;32.10;62.90;;;;;;6251848;28;20024;-82
2021/07/23 08:32:56;;;;;;;13.70;12.18;;;32.50;64.20;;;;;;6235324;28;20085;-82
2021/07/23 08:35:56;;;;;;;12.57;11.27;;;32.60;64.30;;;;;;6251267;28;20674;-82
2021/07/23 08:38:59;;;;;;;13.87;11.87;;;32.40;63.30;;;;;;6251379;28;20259;-82
2021/07/23 08:42:19;;;;;;;12.73;11.23;;;32.50;64.80;;;;;;6234613;28;20060;-82
2021/07/23 08:45:21;;;;;;;13.68;11.35;;;32.40;63.50;;;;;;6253855;28;20033;-82
2021/07/23 08:48:21;;;;;;;12.93;11.15;;;32.50;63.40;;;;;;6251618;28;20021;-82
2021/07/23 08:51:22;;;;;;;18.50;11.57;;;32.50;64.50;;;;;;6251488;28;20040;-82
2021/07/23 08:54:23;;;;;;;13.18;11.30;;;32.60;64.70;;;;;;6251026;28;20267;-82
2021/07/23 08:57:23;;;;;;;15.30;12.67;;;32.70;64.00;;;;;;6250774;28;20043;-82
2021/07/23 09:00:26;;;;;;;14.73;11.70;;;32.80;65.10;;;;;;6250903;28;20075;-82
2021/07/23 09:03:28;;;;;;;14.02;12.55;;;32.70;65.70;;;;;;6250843;28;20490;-82
2021/07/23 09:06:28;;;;;;;13.23;11.40;;;32.70;64.70;;;;;;6250890;28;20032;-82
2021/07/23 09:09:29;;;;;;;14.20;12.57;;;32.70;63.90;;;;;;6234303;28;20047;-82
2021/07/23 09:12:46;;;;;;;16.95;12.93;;;32.50;64.60;;;;;;6250729;28;20652;-82
2021/07/23 09:15:47;;;;;;;17.33;12.68;;;32.50;65.10;;;;;;6249095;28;20041;-82
2021/07/23 09:18:47;;;;;;;18.00;11.93;;;32.60;64.70;;;;;;6249868;28;20473;-82
2021/07/23 09:21:54;;;;;;;13.57;11.87;;;32.70;65.00;;;;;;6231111;28;20329;-82
2021/07/23 09:24:55;;;;;;;14.20;12.40;;;32.90;64.70;;;;;;6249958;28;20029;-82
2021/07/23 09:27:56;;;;;;;14.57;11.48;;;32.90;63.90;;;;;;6250104;28;20366;-82
2021/07/23 09:30:58;;;;;;;15.60;11.30;;;33.10;63.70;;;;;;6232840;28;20041;-83
2021/07/23 09:33:59;;;;;;;17.13;12.85;;;33.20;65.10;;;;;;6250126;28;20067;-82
2021/07/23 09:37:09;;;;;;;;;;;33.20;63.10;;;;;;6250235;28;20782;-82
2021/07/23 09:40:10;;;;;;;14.65;12.10;;;33.00;64.10;;;;;;6267900;28;19913;-82
2021/07/23 09:43:11;;;;;;;12.05;10.57;;;33.20;65.20;;;;;;6249066;28;20430;-82
2021/07/23 09:46:17;;;;;;;16.73;11.55;;;32.70;62.30;;;;;;6226503;28;20025;-82
2021/07/23 09:49:22;;;;;;;15.98;11.45;;;33.40;63.00;;;;;;6267711;28;20560;-82
2021/07/23 09:52:22;;;;;;;13.57;11.18;;;33.40;62.80;;;;;;6232868;28;20036;-86
2021/07/23 09:55:23;;;;;;;14.75;12.35;;;33.40;63.90;;;;;;6232902;28;20065;-82
2021/07/23 09:58:23;;;;;;;16.52;12.20;;;33.50;63.30;;;;;;6233232;28;20410;-81
2021/07/23 10:01:29;;;;;;;14.20;11.82;;;33.50;63.10;;;;;;6250097;28;20037;-81
2021/07/23 10:04:46;;;;;;;16.40;12.18;;;33.70;63.80;;;;;;6249879;28;20028;-81
2021/07/23 10:07:53;;;;;;;13.27;11.88;;;33.80;62.30;;;;;;6232531;28;20083;-81
2021/07/23 10:10:53;;;;;;;12.65;11.13;;;33.90;61.90;;;;;;6249273;28;20029;-82
2021/07/23 10:13:54;;;;;;;14.15;11.15;;;34.10;62.80;;;;;;6249366;28;20029;-82
2021/07/23 10:16:55;;;;;;;12.95;11.63;;;33.80;62.30;;;;;;6233093;28;20048;-81
2021/07/23 10:19:57;;;;;;;13.38;11.20;;;33.90;61.40;;;;;;6249136;28;20025;-81
2021/07/23 10:22:57;;;;;;;13.27;11.65;;;34.00;62.10;;;;;;6266991;28;20037;-81
2021/07/23 10:25:58;;;;;;;15.80;13.07;;;34.20;62.50;;;;;;6249303;28;20025;-81
2021/07/23 10:28:59;;;;;;;14.10;11.82;;;34.00;62.20;;;;;;6251003;28;20036;-81
2021/07/23 10:32:00;;;;;;;15.45;12.07;;;33.70;61.20;;;;;;6254121;28;20029;-81
2021/07/23 10:35:21;;;;;;;15.70;12.35;;;33.90;61.00;;;;;;6253665;28;20452;-81
2021/07/23 10:38:21;;;;;;;15.75;12.73;;;33.90;61.70;;;;;;6256330;28;20060;-81
2021/07/23 10:41:22;;;;;;;14.48;11.45;;;34.10;62.20;;;;;;6253224;28;20067;-82
2021/07/23 10:44:29;;;;;;;;;;;34.00;61.00;;;;;;6254121;28;20374;-82
2021/07/23 10:47:36;;;;;;;13.60;11.45;;;33.90;61.50;;;;;;6253525;28;20284;-83
2021/07/23 10:50:40;;;;;;;14.07;11.40;;;34.10;62.00;;;;;;6271754;28;20120;-82
2021/07/23 10:53:40;;;;;;;12.43;10.90;;;34.10;63.50;;;;;;6253426;28;20025;-82
2021/07/23 10:57:03;;;;;;;13.68;12.18;;;33.80;61.10;;;;;;6252399;28;20032;-81
2021/07/23 11:00:04;;;;;;;13.27;11.93;;;33.60;60.90;;;;;;6270418;28;20055;-82
2021/07/23 11:03:05;;;;;;;13.95;11.82;;;33.60;63.10;;;;;;6235852;28;20471;-81
2021/07/23 11:06:19;;;;;;;12.32;11.02;;;33.60;62.10;;;;;;6252741;28;20027;-81
2021/07/23 11:09:20;;;;;;;14.32;11.70;;;33.60;62.20;;;;;;6235732;28;20032;-82
2021/07/23 11:12:22;;;;;;;13.90;12.35;;;33.50;63.50;;;;;;6252421;28;20055;-81
2021/07/23 11:15:23;;;;;;;13.93;11.60;;;33.60;62.60;;;;;;6252951;28;20406;-82
2021/07/23 11:18:23;;;;;;;12.50;11.15;;;33.30;63.00;;;;;;6253184;28;20059;-82
2021/07/23 11:21:33;;;;;;;12.38;11.00;;;33.30;64.10;;;;;;6270149;28;20040;-81
2021/07/23 11:24:34;;;;;;;14.75;12.18;;;33.30;63.90;;;;;;6270501;28;20029;-81
2021/07/23 11:27:39;;;;;;;13.15;11.82;;;33.20;64.10;;;;;;6252561;28;20455;-81
2021/07/23 11:30:44;;;;;;;13.45;12.05;;;33.30;63.20;;;;;;6235912;28;20036;-81
2021/07/23 11:33:44;;;;;;;14.77;12.00;;;33.00;64.40;;;;;;6270346;28;20021;-82
2021/07/23 11:36:45;;;;;;;16.23;12.43;;;32.90;64.00;;;;;;6236005;28;20466;-82
2021/07/23 11:39:53;;;;;;;22.80;10.98;;;32.70;64.60;;;;;;6235504;28;20048;-82
2021/07/23 11:42:55;;;;;;;13.63;11.55;;;32.50;64.50;;;;;;6250927;28;20068;-82
2021/07/23 11:45:56;;;;;;;13.65;12.25;;;32.40;65.70;;;;;;6252183;28;20363;-85
2021/07/23 11:48:56;;;;;;;15.20;12.18;;;32.30;67.30;;;;;;6234886;28;20028;-83
2021/07/23 11:51:57;;;;;;;14.45;11.88;;;32.10;66.20;;;;;;6251836;28;20435;-84
2021/07/23 11:55:01;;;;;;;14.40;12.27;;;32.10;67.50;;;;;;6235388;28;20032;-84
2021/07/23 11:58:02;;;;;;;13.23;11.80;;;32.00;65.90;;;;;;6234967;28;20437;-84
2021/07/23 12:01:02;;;;;;;15.02;12.00;;;31.70;67.00;;;;;;6251989;28;20082;-84
2021/07/23 12:04:03;;;;;;;13.00;11.70;;;31.80;67.80;;;;;;6235076;28;20076;-84
2021/07/23 12:07:04;;;;;;;14.35;12.15;;;32.00;67.30;;;;;;6234957;28;20295;-84
2021/07/23 12:10:06;;;;;;;14.32;12.43;;;31.90;68.20;;;;;;6234519;28;20028;-83
2021/07/23 12:13:16;;;;;;;13.27;10.98;;;31.80;68.50;;;;;;6251422;28;20040;-85
2021/07/23 12:16:17;;;;;;;14.70;12.75;;;31.50;67.20;;;;;;6235554;28;20037;-79
2021/07/23 12:19:18;;;;;;;13.25;11.88;;;31.50;70.20;;;;;;6251493;28;20415;-82
2021/07/23 12:22:18;;;;;;;15.00;12.80;;;31.50;68.80;;;;;;6251077;28;20048;-81
2021/07/23 12:25:20;;;;;;;18.67;13.90;;;31.40;70.00;;;;;;6251046;28;20033;-80
2021/07/23 12:28:22;;;;;;;16.65;13.27;;;31.20;68.50;;;;;;6251159;28;20379;-81
2021/07/23 12:31:22;;;;;;;16.00;12.13;;;30.90;69.40;;;;;;6250120;28;20017;-81
2021/07/23 12:34:25;;;;;;;14.07;11.27;;;30.70;70.80;;;;;;6250937;28;20064;-83
2021/07/23 12:37:27;;;;;;;13.25;11.77;;;30.60;70.90;;;;;;6234558;28;20040;-85
2021/07/23 12:40:47;;;;;;;;;;;30.60;70.90;;;;;;6250306;28;20393;-76
2021/07/23 12:44:05;;;;;;;15.18;12.60;;;30.50;70.40;;;;;;6267768;28;19920;-76
2021/07/23 12:47:16;;;;;;;18.17;13.63;;;30.50;71.10;;;;;;6251414;28;20108;-77
2021/07/23 12:50:18;;;;;;;17.15;12.52;;;30.70;72.20;;;;;;6250899;28;20111;-78
2021/07/23 12:53:25;;;;;;;17.52;12.48;;;30.60;70.90;;;;;;6249602;28;20051;-77
2021/07/23 12:56:30;;;;;;;14.38;12.45;;;30.70;70.50;;;;;;6250847;28;20071;-78
2021/07/23 12:59:30;;;;;;;19.92;13.68;;;30.80;69.50;;;;;;6250677;28;20020;-77
2021/07/23 13:02:31;;;;;;;16.33;12.17;;;31.00;72.00;;;;;;6233545;28;20374;-77
2021/07/23 13:05:33;;;;;;;15.98;12.77;;;31.00;69.40;;;;;;6268145;28;20733;-78
2021/07/23 13:08:34;;;;;;;16.65;13.02;;;31.10;70.00;;;;;;6250619;28;20028;-77
2021/07/23 13:11:34;;;;;;;13.25;11.85;;;31.00;71.10;;;;;;6250256;28;20021;-77
2021/07/23 13:14:35;;;;;;;13.13;11.73;;;31.20;70.60;;;;;;6250633;28;20040;-79
2021/07/23 13:17:36;;;;;;;14.40;12.38;;;31.30;69.20;;;;;;6267838;28;20056;-77
2021/07/23 13:24:34;;;;;;;14.00;12.60;;;31.60;68.60;;;;;;6267007;28;20049;-78
2021/07/23 13:27:35;;;;;;;13.35;11.95;;;31.30;68.60;;;;;;6250261;28;20020;-80
2021/07/23 13:30:36;;;;;;;15.75;12.50;;;31.30;67.70;;;;;;6233141;28;20067;-78
2021/07/23 13:33:36;;;;;;;14.13;11.97;;;31.30;68.90;;;;;;6248707;28;20381;-78
2021/07/23 13:36:42;;;;;;;14.23;12.00;;;31.40;71.40;;;;;;6249825;28;20283;-79
2021/07/23 13:39:50;;;;;;;16.77;13.20;;;31.20;68.70;;;;;;6249829;28;20025;-78
2021/07/23 13:42:53;;;;;;;15.30;13.52;;;30.80;67.80;;;;;;6232242;28;20068;-79
2021/07/23 13:45:54;;;;;;;14.90;11.55;;;30.70;71.10;;;;;;6233560;28;20087;-80
2021/07/23 13:48:54;;;;;;;15.27;12.70;;;30.70;70.10;;;;;;6249772;28;20029;-79
2021/07/23 13:51:55;;;;;;;14.50;12.97;;;30.60;71.10;;;;;;6249668;28;20042;-78
2021/07/23 13:54:55;;;;;;;14.53;12.53;;;30.60;70.40;;;;;;6267493;28;20074;-79
2021/07/23 13:57:56;;;;;;;15.13;12.30;;;30.70;71.00;;;;;;6249996;28;20033;-79
2021/07/23 14:00:56;;;;;;;15.37;12.80;;;31.00;71.40;;;;;;6267228;28;20083;-79
2021/07/23 14:03:57;;;;;;;14.05;12.60;;;31.10;70.80;;;;;;6251288;28;20132;-79
2021/07/23 14:07:03;;;;;;;18.25;13.45;;;31.10;66.80;;;;;;6254675;28;20017;-79
2021/07/23 14:10:05;;;;;;;14.50;12.85;;;30.90;69.80;;;;;;6255013;28;20028;-79
2021/07/23 14:13:05;;;;;;;15.93;12.05;;;30.90;70.00;;;;;;6254370;28;20094;-81
2021/07/23 14:16:06;;;;;;;13.97;12.17;;;30.80;68.90;;;;;;6254347;28;20037;-80
2021/07/23 14:19:57;;;;;;;16.13;12.65;;;30.80;71.10;;;;;;6237785;28;20079;-87
2021/07/23 14:22:58;;;;;;;15.15;12.48;;;30.90;72.10;;;;;;6190902;28;20050;-79
2021/07/23 14:25:58;;;;;;;19.97;12.73;;;31.00;71.50;;;;;;6178944;28;20085;-80
2021/07/23 14:28:59;;;;;;;16.67;13.30;;;31.00;70.90;;;;;;6162655;28;20265;-79
2021/07/23 14:31:59;;;;;;;15.33;12.67;;;30.80;71.60;;;;;;6195252;28;20386;-81
2021/07/23 14:35:00;;;;;;;13.73;12.32;;;30.90;72.10;;;;;;6161351;28;20053;-80
2021/07/23 14:38:01;;;;;;;14.30;12.07;;;31.00;71.50;;;;;;6177397;28;20026;-79
2021/07/23 14:41:01;;;;;;;14.07;12.45;;;31.20;71.30;;;;;;6145123;28;20039;-80
2021/07/23 14:44:02;;;;;;;14.80;12.30;;;31.10;71.10;;;;;;6161408;28;20141;-80
2021/07/23 14:47:03;;;;;;;14.70;11.90;;;31.00;71.40;;;;;;6177301;28;20096;-79
2021/07/23 14:50:04;;;;;;;14.52;12.73;;;30.90;70.70;;;;;;6178488;28;20022;-78
2021/07/23 14:53:04;;;;;;;14.93;13.27;;;30.90;70.10;;;;;;6178011;28;20041;-79
2021/07/23 14:56:06;;;;;;;14.40;12.90;;;30.90;70.60;;;;;;6178714;28;20039;-80
2021/07/23 14:59:06;;;;;;;18.25;13.05;;;30.90;68.60;;;;;;6216797;28;20287;-80
2021/07/23 15:02:07;;;;;;;14.37;12.40;;;30.90;68.80;;;;;;6253266;28;20127;-79
2021/07/23 15:05:08;;;;;;;17.55;12.60;;;30.90;71.50;;;;;;6253236;28;20268;-80
2021/07/23 15:08:08;;;;;;;17.02;12.95;;;30.90;70.60;;;;;;6253399;28;20390;-79
2021/07/23 15:11:09;;;;;;;15.50;13.37;;;30.80;70.80;;;;;;6236677;28;20025;-81
2021/07/23 15:14:10;;;;;;;14.03;12.33;;;30.70;71.90;;;;;;6252616;28;20067;-83
2021/07/23 15:17:12;;;;;;;15.60;12.57;;;30.60;72.00;;;;;;6253403;28;20024;-81
2021/07/23 15:20:13;;;;;;;14.75;13.07;;;30.60;73.00;;;;;;6253596;28;20065;-81
2021/07/23 15:23:13;;;;;;;15.77;12.45;;;30.60;72.90;;;;;;6253016;28;20098;-80
2021/07/23 15:26:14;;;;;;;14.60;12.83;;;30.70;72.50;;;;;;6236240;28;20036;-80
2021/07/23 15:29:15;;;;;;;18.37;12.90;;;30.70;71.10;;;;;;6252970;28;20021;-81
2021/07/23 15:32:37;;;;;;;15.93;14.13;;;30.70;71.80;;;;;;6264949;28;20056;-86